sensor_id;sensor_type;location;lat;lon;timestamp;temperature;humidity
19552;DHT22;9921;47.186;9.778;2023-06-26T00:00:54;19.70;99.90
19552;DHT22;9921;47.186;9.778;2023-06-26T00:03:20;19.70;99.90
19552;DHT22;9921;47.186;9.778;2023-06-26T00:05:48;19.80;99.90
19552;DHT22;9921;47.186;9.778;2023-06-26T00:08:16;19.90;99.90
19552;DHT22;9921;47.186;9.778;2023-06-26T00:10:43;20.00;99.90
19552;DHT22;9921;47.186;9.778;2023-06-26T00:13:09;20.00;99.90
19552;DHT22;9921;47.186;9.778;2023-06-26T00:15:39;19.80;99.90
19552;DHT22;9921;47.186;9.778;2023-06-26T00:18:06;19.80;99.90
19552;DHT22;9921;47.186;9.778;2023-06-26T00:20:32;19.70;99.90
19552;DHT22;9921;47.186;9.778;2023-06-26T00:22:59;19.70;99.90
19552;DHT22;9921;47.186;9.778;2023-06-26T00:25:26;19.80;99.90
19552;DHT22;9921;47.186;9.778;2023-06-26T00:27:53;19.80;99.90
19552;DHT22;9921;47.186;9.778;2023-06-26T00:30:20;19.90;99.90
19552;DHT22;9921;47.186;9.778;2023-06-26T00:32:48;19.90;99.90
19552;DHT22;9921;47.186;9.778;2023-06-26T00:35:15;20.00;99.90
19552;DHT22;9921;47.186;9.778;2023-06-26T00:37:42;19.90;99.90
19552;DHT22;9921;47.186;9.778;2023-06-26T00:40:09;19.70;99.90
19552;DHT22;9921;47.186;9.778;2023-06-26T00:42:36;19.80;99.90
19552;DHT22;9921;47.186;9.778;2023-06-26T00:45:04;19.70;99.90
19552;DHT22;9921;47.186;9.778;2023-06-26T00:47:31;19.70;99.90
19552;DHT22;9921;47.186;9.778;2023-06-26T00:49:59;19.60;99.90
19552;DHT22;9921;47.186;9.778;2023-06-26T00:52:26;19.70;99.90
19552;DHT22;9921;47.186;9.778;2023-06-26T00:54:53;19.70;99.90
19552;DHT22;9921;47.186;9.778;2023-06-26T00:57:20;19.80;99.90
19552;DHT22;9921;47.186;9.778;2023-06-26T00:59:48;19.90;99.90
19552;DHT22;9921;47.186;9.778;2023-06-26T01:02:15;20.00;99.90
19552;DHT22;9921;47.186;9.778;2023-06-26T01:04:43;20.00;99.90
19552;DHT22;9921;47.186;9.778;2023-06-26T01:07:14;20.00;99.90
19552;DHT22;9921;47.186;9.778;2023-06-26T01:09:42;20.00;99.90
19552;DHT22;9921;47.186;9.778;2023-06-26T01:12:09;19.80;99.90
19552;DHT22;9921;47.186;9.778;2023-06-26T01:14:36;19.90;99.90
19552;DHT22;9921;47.186;9.778;2023-06-26T01:17:03;19.90;99.90
19552;DHT22;9921;47.186;9.778;2023-06-26T01:19:32;19.90;99.90
19552;DHT22;9921;47.186;9.778;2023-06-26T01:22:07;19.90;99.90
19552;DHT22;9921;47.186;9.778;2023-06-26T01:24:49;19.90;99.90
19552;DHT22;9921;47.186;9.778;2023-06-26T01:27:22;19.60;99.90
19552;DHT22;9921;47.186;9.778;2023-06-26T01:29:50;19.50;99.90
19552;DHT22;9921;47.186;9.778;2023-06-26T01:32:18;19.60;99.90
19552;DHT22;9921;47.186;9.778;2023-06-26T01:34:45;19.60;99.90
19552;DHT22;9921;47.186;9.778;2023-06-26T01:37:12;19.60;99.90
19552;DHT22;9921;47.186;9.778;2023-06-26T01:39:39;19.70;99.90
19552;DHT22;9921;47.186;9.778;2023-06-26T01:42:06;19.80;99.90
19552;DHT22;9921;47.186;9.778;2023-06-26T01:44:37;19.80;99.90
19552;DHT22;9921;47.186;9.778;2023-06-26T01:47:11;19.80;99.90
19552;DHT22;9921;47.186;9.778;2023-06-26T01:49:46;19.80;99.90
19552;DHT22;9921;47.186;9.778;2023-06-26T01:52:19;19.80;99.90
19552;DHT22;9921;47.186;9.778;2023-06-26T01:54:53;19.90;99.90
19552;DHT22;9921;47.186;9.778;2023-06-26T01:57:21;19.90;99.90
19552;DHT22;9921;47.186;9.778;2023-06-26T01:59:51;20.00;99.90
19552;DHT22;9921;47.186;9.778;2023-06-26T02:02:18;20.00;99.90
19552;DHT22;9921;47.186;9.778;2023-06-26T02:04:45;20.10;99.90
19552;DHT22;9921;47.186;9.778;2023-06-26T02:07:14;20.00;99.90
19552;DHT22;9921;47.186;9.778;2023-06-26T02:09:41;20.00;99.90
19552;DHT22;9921;47.186;9.778;2023-06-26T02:12:08;20.00;99.90
19552;DHT22;9921;47.186;9.778;2023-06-26T02:14:35;20.00;99.90
19552;DHT22;9921;47.186;9.778;2023-06-26T02:17:04;19.90;99.90
19552;DHT22;9921;47.186;9.778;2023-06-26T02:19:31;19.90;99.90
19552;DHT22;9921;47.186;9.778;2023-06-26T02:21:57;19.90;99.90
19552;DHT22;9921;47.186;9.778;2023-06-26T02:24:24;19.90;99.90
19552;DHT22;9921;47.186;9.778;2023-06-26T02:26:52;19.70;99.90
19552;DHT22;9921;47.186;9.778;2023-06-26T02:29:19;19.70;99.90
19552;DHT22;9921;47.186;9.778;2023-06-26T02:31:46;19.70;99.90
19552;DHT22;9921;47.186;9.778;2023-06-26T02:34:15;19.80;99.90
19552;DHT22;9921;47.186;9.778;2023-06-26T02:36:42;19.80;99.90
19552;DHT22;9921;47.186;9.778;2023-06-26T02:39:09;19.90;99.90
19552;DHT22;9921;47.186;9.778;2023-06-26T02:41:36;19.80;99.90
19552;DHT22;9921;47.186;9.778;2023-06-26T02:44:03;19.60;99.90
19552;DHT22;9921;47.186;9.778;2023-06-26T02:46:30;19.60;99.90
19552;DHT22;9921;47.186;9.778;2023-06-26T02:48:57;19.30;99.90
19552;DHT22;9921;47.186;9.778;2023-06-26T02:51:25;19.10;99.90
19552;DHT22;9921;47.186;9.778;2023-06-26T02:53:52;19.00;99.90
19552;DHT22;9921;47.186;9.778;2023-06-26T02:56:19;19.20;99.90
19552;DHT22;9921;47.186;9.778;2023-06-26T02:58:46;19.20;99.90
19552;DHT22;9921;47.186;9.778;2023-06-26T03:01:12;19.30;99.90
19552;DHT22;9921;47.186;9.778;2023-06-26T03:03:41;19.40;99.90
19552;DHT22;9921;47.186;9.778;2023-06-26T03:06:08;19.30;99.90
19552;DHT22;9921;47.186;9.778;2023-06-26T03:08:37;19.30;99.90
19552;DHT22;9921;47.186;9.778;2023-06-26T03:11:04;19.00;99.90
19552;DHT22;9921;47.186;9.778;2023-06-26T03:13:32;18.70;99.90
19552;DHT22;9921;47.186;9.778;2023-06-26T03:15:59;18.70;99.90
19552;DHT22;9921;47.186;9.778;2023-06-26T03:18:26;18.60;99.90
19552;DHT22;9921;47.186;9.778;2023-06-26T03:20:53;18.60;99.90
19552;DHT22;9921;47.186;9.778;2023-06-26T03:23:20;18.70;99.90
19552;DHT22;9921;47.186;9.778;2023-06-26T03:25:49;18.70;99.90
19552;DHT22;9921;47.186;9.778;2023-06-26T03:28:16;18.70;99.90
19552;DHT22;9921;47.186;9.778;2023-06-26T03:30:43;18.80;99.90
19552;DHT22;9921;47.186;9.778;2023-06-26T03:33:10;18.80;99.90
19552;DHT22;9921;47.186;9.778;2023-06-26T03:35:37;18.90;99.90
19552;DHT22;9921;47.186;9.778;2023-06-26T03:38:04;19.00;99.90
19552;DHT22;9921;47.186;9.778;2023-06-26T03:40:31;19.00;99.90
19552;DHT22;9921;47.186;9.778;2023-06-26T03:42:59;19.00;99.90
19552;DHT22;9921;47.186;9.778;2023-06-26T03:45:26;19.00;99.90
19552;DHT22;9921;47.186;9.778;2023-06-26T03:47:53;19.00;99.90
19552;DHT22;9921;47.186;9.778;2023-06-26T03:50:20;19.00;99.90
19552;DHT22;9921;47.186;9.778;2023-06-26T03:52:47;19.00;99.90
19552;DHT22;9921;47.186;9.778;2023-06-26T03:55:15;19.10;99.90
19552;DHT22;9921;47.186;9.778;2023-06-26T03:57:42;19.10;99.90
19552;DHT22;9921;47.186;9.778;2023-06-26T04:00:12;19.10;99.90
19552;DHT22;9921;47.186;9.778;2023-06-26T04:02:39;19.00;99.90
19552;DHT22;9921;47.186;9.778;2023-06-26T04:05:06;19.10;99.90
19552;DHT22;9921;47.186;9.778;2023-06-26T04:07:33;19.20;99.90
19552;DHT22;9921;47.186;9.778;2023-06-26T04:10:01;19.20;99.90
19552;DHT22;9921;47.186;9.778;2023-06-26T04:12:28;19.20;99.90
19552;DHT22;9921;47.186;9.778;2023-06-26T04:14:55;19.20;99.90
19552;DHT22;9921;47.186;9.778;2023-06-26T04:17:23;19.20;99.90
19552;DHT22;9921;47.186;9.778;2023-06-26T04:19:50;19.20;99.90
19552;DHT22;9921;47.186;9.778;2023-06-26T04:22:17;19.20;99.90
19552;DHT22;9921;47.186;9.778;2023-06-26T04:24:43;19.20;99.90
19552;DHT22;9921;47.186;9.778;2023-06-26T04:27:11;19.30;99.90
19552;DHT22;9921;47.186;9.778;2023-06-26T04:29:39;19.40;99.90
19552;DHT22;9921;47.186;9.778;2023-06-26T04:32:06;19.40;99.90
19552;DHT22;9921;47.186;9.778;2023-06-26T04:34:35;19.40;99.90
19552;DHT22;9921;47.186;9.778;2023-06-26T04:37:06;19.30;99.90
19552;DHT22;9921;47.186;9.778;2023-06-26T04:39:35;19.30;99.90
19552;DHT22;9921;47.186;9.778;2023-06-26T04:42:04;19.40;99.90
19552;DHT22;9921;47.186;9.778;2023-06-26T04:44:31;19.40;99.90
19552;DHT22;9921;47.186;9.778;2023-06-26T04:46:57;19.40;99.90
19552;DHT22;9921;47.186;9.778;2023-06-26T04:49:24;19.40;99.90
19552;DHT22;9921;47.186;9.778;2023-06-26T04:51:54;19.40;99.90
19552;DHT22;9921;47.186;9.778;2023-06-26T04:54:21;19.50;99.90
19552;DHT22;9921;47.186;9.778;2023-06-26T04:56:48;19.50;99.90
19552;DHT22;9921;47.186;9.778;2023-06-26T04:59:15;19.50;99.90
19552;DHT22;9921;47.186;9.778;2023-06-26T05:01:42;19.50;99.90
19552;DHT22;9921;47.186;9.778;2023-06-26T05:04:13;19.50;99.90
19552;DHT22;9921;47.186;9.778;2023-06-26T05:06:40;19.30;99.90
19552;DHT22;9921;47.186;9.778;2023-06-26T05:09:08;19.30;99.90
19552;DHT22;9921;47.186;9.778;2023-06-26T05:11:36;19.20;99.90
19552;DHT22;9921;47.186;9.778;2023-06-26T05:14:03;19.00;99.90
19552;DHT22;9921;47.186;9.778;2023-06-26T05:16:33;19.10;99.90
19552;DHT22;9921;47.186;9.778;2023-06-26T05:18:59;19.20;99.90
19552;DHT22;9921;47.186;9.778;2023-06-26T05:21:27;19.30;99.90
19552;DHT22;9921;47.186;9.778;2023-06-26T05:23:57;19.30;99.90
19552;DHT22;9921;47.186;9.778;2023-06-26T05:26:26;19.40;99.90
19552;DHT22;9921;47.186;9.778;2023-06-26T05:28:54;19.40;99.90
19552;DHT22;9921;47.186;9.778;2023-06-26T05:31:21;19.30;99.90
19552;DHT22;9921;47.186;9.778;2023-06-26T05:33:49;19.40;99.90
19552;DHT22;9921;47.186;9.778;2023-06-26T05:36:18;19.40;99.90
19552;DHT22;9921;47.186;9.778;2023-06-26T05:38:45;19.50;99.90
19552;DHT22;9921;47.186;9.778;2023-06-26T05:41:13;19.70;99.90
19552;DHT22;9921;47.186;9.778;2023-06-26T05:43:41;19.60;99.90
19552;DHT22;9921;47.186;9.778;2023-06-26T05:46:08;19.60;99.90
19552;DHT22;9921;47.186;9.778;2023-06-26T05:48:35;19.70;99.90
19552;DHT22;9921;47.186;9.778;2023-06-26T05:51:02;19.70;99.90
19552;DHT22;9921;47.186;9.778;2023-06-26T05:53:30;19.80;99.90
19552;DHT22;9921;47.186;9.778;2023-06-26T05:55:57;19.80;99.90
19552;DHT22;9921;47.186;9.778;2023-06-26T05:58:26;19.90;99.90
19552;DHT22;9921;47.186;9.778;2023-06-26T06:00:55;20.00;99.90
19552;DHT22;9921;47.186;9.778;2023-06-26T06:03:23;20.20;99.90
19552;DHT22;9921;47.186;9.778;2023-06-26T06:05:49;20.30;99.90
19552;DHT22;9921;47.186;9.778;2023-06-26T06:08:16;20.40;99.90
19552;DHT22;9921;47.186;9.778;2023-06-26T06:10:43;20.50;99.90
19552;DHT22;9921;47.186;9.778;2023-06-26T06:13:10;20.50;99.90
19552;DHT22;9921;47.186;9.778;2023-06-26T06:15:37;20.60;99.90
19552;DHT22;9921;47.186;9.778;2023-06-26T06:18:05;20.70;99.90
19552;DHT22;9921;47.186;9.778;2023-06-26T06:20:32;20.80;99.90
19552;DHT22;9921;47.186;9.778;2023-06-26T06:22:59;20.80;99.90
19552;DHT22;9921;47.186;9.778;2023-06-26T06:25:26;20.90;99.90
19552;DHT22;9921;47.186;9.778;2023-06-26T06:27:53;21.00;99.90
19552;DHT22;9921;47.186;9.778;2023-06-26T06:30:20;21.20;99.90
19552;DHT22;9921;47.186;9.778;2023-06-26T06:32:47;21.30;99.90
19552;DHT22;9921;47.186;9.778;2023-06-26T06:35:17;21.30;99.90
19552;DHT22;9921;47.186;9.778;2023-06-26T06:37:44;21.40;99.90
19552;DHT22;9921;47.186;9.778;2023-06-26T06:40:12;21.50;99.90
19552;DHT22;9921;47.186;9.778;2023-06-26T06:42:39;21.60;99.90
19552;DHT22;9921;47.186;9.778;2023-06-26T06:45:06;21.70;99.90
19552;DHT22;9921;47.186;9.778;2023-06-26T06:47:33;21.80;99.90
19552;DHT22;9921;47.186;9.778;2023-06-26T06:50:01;21.80;99.90
19552;DHT22;9921;47.186;9.778;2023-06-26T06:52:35;21.90;99.90
19552;DHT22;9921;47.186;9.778;2023-06-26T06:55:02;22.00;99.90
19552;DHT22;9921;47.186;9.778;2023-06-26T06:57:32;22.10;99.90
19552;DHT22;9921;47.186;9.778;2023-06-26T07:00:01;22.10;99.90
19552;DHT22;9921;47.186;9.778;2023-06-26T07:02:30;22.20;99.90
19552;DHT22;9921;47.186;9.778;2023-06-26T07:04:56;22.30;99.90
19552;DHT22;9921;47.186;9.778;2023-06-26T07:07:23;22.40;99.90
19552;DHT22;9921;47.186;9.778;2023-06-26T07:09:56;22.50;99.90
19552;DHT22;9921;47.186;9.778;2023-06-26T07:12:24;22.70;99.90
19552;DHT22;9921;47.186;9.778;2023-06-26T07:14:51;22.80;99.90
19552;DHT22;9921;47.186;9.778;2023-06-26T07:17:19;22.90;99.90
19552;DHT22;9921;47.186;9.778;2023-06-26T07:19:46;23.10;99.90
19552;DHT22;9921;47.186;9.778;2023-06-26T07:22:13;23.20;99.90
19552;DHT22;9921;47.186;9.778;2023-06-26T07:24:40;23.40;99.90
19552;DHT22;9921;47.186;9.778;2023-06-26T07:27:08;23.50;99.90
19552;DHT22;9921;47.186;9.778;2023-06-26T07:29:35;23.60;99.90
19552;DHT22;9921;47.186;9.778;2023-06-26T07:32:03;23.80;99.90
19552;DHT22;9921;47.186;9.778;2023-06-26T07:34:30;24.00;99.90
19552;DHT22;9921;47.186;9.778;2023-06-26T07:36:57;24.00;99.90
19552;DHT22;9921;47.186;9.778;2023-06-26T07:39:23;24.10;99.90
19552;DHT22;9921;47.186;9.778;2023-06-26T07:41:50;24.20;99.90
19552;DHT22;9921;47.186;9.778;2023-06-26T07:44:18;24.20;99.90
19552;DHT22;9921;47.186;9.778;2023-06-26T07:46:45;24.40;99.90
19552;DHT22;9921;47.186;9.778;2023-06-26T07:49:12;24.60;99.90
19552;DHT22;9921;47.186;9.778;2023-06-26T07:51:39;24.90;99.90
19552;DHT22;9921;47.186;9.778;2023-06-26T07:54:06;25.00;99.90
19552;DHT22;9921;47.186;9.778;2023-06-26T07:56:38;25.20;99.90
19552;DHT22;9921;47.186;9.778;2023-06-26T07:59:19;25.30;99.90
19552;DHT22;9921;47.186;9.778;2023-06-26T08:01:47;25.50;99.90
19552;DHT22;9921;47.186;9.778;2023-06-26T08:04:14;25.60;99.90
19552;DHT22;9921;47.186;9.778;2023-06-26T08:06:41;25.70;99.90
19552;DHT22;9921;47.186;9.778;2023-06-26T08:09:08;25.80;99.90
19552;DHT22;9921;47.186;9.778;2023-06-26T08:11:35;26.00;99.90
19552;DHT22;9921;47.186;9.778;2023-06-26T08:14:02;26.20;99.90
19552;DHT22;9921;47.186;9.778;2023-06-26T08:16:30;26.40;99.90
19552;DHT22;9921;47.186;9.778;2023-06-26T08:18:57;26.60;99.90
19552;DHT22;9921;47.186;9.778;2023-06-26T08:21:24;26.60;99.90
19552;DHT22;9921;47.186;9.778;2023-06-26T08:23:51;26.70;99.90
19552;DHT22;9921;47.186;9.778;2023-06-26T08:26:18;26.90;99.90
19552;DHT22;9921;47.186;9.778;2023-06-26T08:28:45;27.00;99.90
19552;DHT22;9921;47.186;9.778;2023-06-26T08:31:12;27.10;99.90
19552;DHT22;9921;47.186;9.778;2023-06-26T08:33:40;27.10;99.90
19552;DHT22;9921;47.186;9.778;2023-06-26T08:36:07;27.10;99.90
19552;DHT22;9921;47.186;9.778;2023-06-26T08:38:33;27.20;99.90
19552;DHT22;9921;47.186;9.778;2023-06-26T08:41:00;27.30;99.90
19552;DHT22;9921;47.186;9.778;2023-06-26T08:43:27;27.30;99.90
19552;DHT22;9921;47.186;9.778;2023-06-26T08:45:57;27.40;99.90
19552;DHT22;9921;47.186;9.778;2023-06-26T08:48:24;27.60;99.90
19552;DHT22;9921;47.186;9.778;2023-06-26T08:50:54;27.70;99.90
19552;DHT22;9921;47.186;9.778;2023-06-26T08:53:29;27.90;99.90
19552;DHT22;9921;47.186;9.778;2023-06-26T08:56:00;28.00;99.90
19552;DHT22;9921;47.186;9.778;2023-06-26T08:58:27;28.20;99.90
19552;DHT22;9921;47.186;9.778;2023-06-26T09:00:54;28.30;99.90
19552;DHT22;9921;47.186;9.778;2023-06-26T09:03:23;28.50;99.90
19552;DHT22;9921;47.186;9.778;2023-06-26T09:05:52;28.70;99.90
19552;DHT22;9921;47.186;9.778;2023-06-26T09:08:19;28.90;99.90
19552;DHT22;9921;47.186;9.778;2023-06-26T09:10:46;29.00;99.90
19552;DHT22;9921;47.186;9.778;2023-06-26T09:13:13;29.10;99.90
19552;DHT22;9921;47.186;9.778;2023-06-26T09:15:43;29.30;99.90
19552;DHT22;9921;47.186;9.778;2023-06-26T09:18:10;29.30;99.90
19552;DHT22;9921;47.186;9.778;2023-06-26T09:20:37;29.30;99.90
19552;DHT22;9921;47.186;9.778;2023-06-26T09:23:05;29.30;99.90
19552;DHT22;9921;47.186;9.778;2023-06-26T09:25:32;29.30;99.90
19552;DHT22;9921;47.186;9.778;2023-06-26T09:28:00;29.20;99.90
19552;DHT22;9921;47.186;9.778;2023-06-26T09:30:27;29.30;99.90
19552;DHT22;9921;47.186;9.778;2023-06-26T09:32:54;29.40;99.90
19552;DHT22;9921;47.186;9.778;2023-06-26T09:35:21;29.40;99.90
19552;DHT22;9921;47.186;9.778;2023-06-26T09:37:48;29.40;99.90
19552;DHT22;9921;47.186;9.778;2023-06-26T09:40:16;29.50;99.90
19552;DHT22;9921;47.186;9.778;2023-06-26T09:42:43;29.60;99.90
19552;DHT22;9921;47.186;9.778;2023-06-26T09:45:18;29.70;99.90
19552;DHT22;9921;47.186;9.778;2023-06-26T09:47:46;29.90;99.90
19552;DHT22;9921;47.186;9.778;2023-06-26T09:50:22;30.00;99.90
19552;DHT22;9921;47.186;9.778;2023-06-26T09:52:51;30.20;99.90
19552;DHT22;9921;47.186;9.778;2023-06-26T09:55:19;30.30;99.90
19552;DHT22;9921;47.186;9.778;2023-06-26T09:57:49;30.40;99.90
19552;DHT22;9921;47.186;9.778;2023-06-26T10:00:16;30.50;99.90
19552;DHT22;9921;47.186;9.778;2023-06-26T10:02:44;30.60;99.90
19552;DHT22;9921;47.186;9.778;2023-06-26T10:05:11;30.70;99.90
19552;DHT22;9921;47.186;9.778;2023-06-26T10:07:39;30.70;99.90
19552;DHT22;9921;47.186;9.778;2023-06-26T10:10:08;30.80;99.90
19552;DHT22;9921;47.186;9.778;2023-06-26T10:12:38;31.00;99.90
19552;DHT22;9921;47.186;9.778;2023-06-26T10:15:06;31.20;99.90
19552;DHT22;9921;47.186;9.778;2023-06-26T10:17:39;31.20;99.90
19552;DHT22;9921;47.186;9.778;2023-06-26T10:20:10;31.30;99.90
19552;DHT22;9921;47.186;9.778;2023-06-26T10:22:43;31.40;99.90
19552;DHT22;9921;47.186;9.778;2023-06-26T10:25:13;31.50;99.90
19552;DHT22;9921;47.186;9.778;2023-06-26T10:27:45;31.70;99.90
19552;DHT22;9921;47.186;9.778;2023-06-26T10:30:25;31.80;99.90
19552;DHT22;9921;47.186;9.778;2023-06-26T10:32:54;32.00;99.90
19552;DHT22;9921;47.186;9.778;2023-06-26T10:35:21;32.20;99.90
19552;DHT22;9921;47.186;9.778;2023-06-26T10:37:49;32.30;98.70
19552;DHT22;9921;47.186;9.778;2023-06-26T10:40:22;32.30;98.60
19552;DHT22;9921;47.186;9.778;2023-06-26T10:43:06;32.50;97.80
19552;DHT22;9921;47.186;9.778;2023-06-26T10:45:34;32.50;98.50
19552;DHT22;9921;47.186;9.778;2023-06-26T10:48:01;32.60;99.70
19552;DHT22;9921;47.186;9.778;2023-06-26T10:50:30;32.70;98.80
19552;DHT22;9921;47.186;9.778;2023-06-26T10:53:23;32.80;99.60
19552;DHT22;9921;47.186;9.778;2023-06-26T10:55:55;32.90;97.10
19552;DHT22;9921;47.186;9.778;2023-06-26T10:58:42;33.00;97.30
19552;DHT22;9921;47.186;9.778;2023-06-26T11:01:18;33.10;96.00
19552;DHT22;9921;47.186;9.778;2023-06-26T11:03:47;33.20;97.00
19552;DHT22;9921;47.186;9.778;2023-06-26T11:06:17;33.20;96.70
19552;DHT22;9921;47.186;9.778;2023-06-26T11:08:45;33.30;97.40
19552;DHT22;9921;47.186;9.778;2023-06-26T11:11:12;33.30;97.00
19552;DHT22;9921;47.186;9.778;2023-06-26T11:13:41;33.30;97.10
19552;DHT22;9921;47.186;9.778;2023-06-26T11:16:08;33.30;96.50
19552;DHT22;9921;47.186;9.778;2023-06-26T11:18:35;33.30;96.90
19552;DHT22;9921;47.186;9.778;2023-06-26T11:21:06;33.50;95.40
19552;DHT22;9921;47.186;9.778;2023-06-26T11:23:34;33.70;98.50
19552;DHT22;9921;47.186;9.778;2023-06-26T11:26:15;33.70;95.20
19552;DHT22;9921;47.186;9.778;2023-06-26T11:28:51;33.60;95.80
19552;DHT22;9921;47.186;9.778;2023-06-26T11:31:30;33.60;96.30
19552;DHT22;9921;47.186;9.778;2023-06-26T11:33:58;33.50;95.70
19552;DHT22;9921;47.186;9.778;2023-06-26T11:36:26;33.60;96.00
19552;DHT22;9921;47.186;9.778;2023-06-26T11:38:53;33.70;94.60
19552;DHT22;9921;47.186;9.778;2023-06-26T11:41:21;33.70;95.10
19552;DHT22;9921;47.186;9.778;2023-06-26T11:43:51;33.60;95.20
19552;DHT22;9921;47.186;9.778;2023-06-26T11:46:19;33.50;95.60
19552;DHT22;9921;47.186;9.778;2023-06-26T11:48:46;33.30;96.50
19552;DHT22;9921;47.186;9.778;2023-06-26T11:51:14;33.30;95.00
19552;DHT22;9921;47.186;9.778;2023-06-26T11:53:41;33.40;94.70
19552;DHT22;9921;47.186;9.778;2023-06-26T11:56:09;33.50;94.10
19552;DHT22;9921;47.186;9.778;2023-06-26T11:58:36;33.50;94.50
19552;DHT22;9921;47.186;9.778;2023-06-26T12:01:05;33.50;94.00
19552;DHT22;9921;47.186;9.778;2023-06-26T12:03:33;33.50;95.60
19552;DHT22;9921;47.186;9.778;2023-06-26T12:06:00;33.50;95.00
19552;DHT22;9921;47.186;9.778;2023-06-26T12:08:31;33.50;96.00
19552;DHT22;9921;47.186;9.778;2023-06-26T12:10:58;33.60;94.80
19552;DHT22;9921;47.186;9.778;2023-06-26T12:13:25;33.60;94.90
19552;DHT22;9921;47.186;9.778;2023-06-26T12:15:52;33.70;94.80
19552;DHT22;9921;47.186;9.778;2023-06-26T12:18:21;33.60;93.50
19552;DHT22;9921;47.186;9.778;2023-06-26T12:20:51;33.60;92.90
19552;DHT22;9921;47.186;9.778;2023-06-26T12:23:18;33.60;92.90
19552;DHT22;9921;47.186;9.778;2023-06-26T12:25:45;33.60;91.20
19552;DHT22;9921;47.186;9.778;2023-06-26T12:28:16;33.70;91.00
19552;DHT22;9921;47.186;9.778;2023-06-26T12:30:46;33.80;90.70
19552;DHT22;9921;47.186;9.778;2023-06-26T12:33:14;33.90;93.30
19552;DHT22;9921;47.186;9.778;2023-06-26T12:35:43;34.00;92.00
19552;DHT22;9921;47.186;9.778;2023-06-26T12:38:10;34.10;92.80
19552;DHT22;9921;47.186;9.778;2023-06-26T12:40:45;34.10;92.10
19552;DHT22;9921;47.186;9.778;2023-06-26T12:43:22;34.10;91.10
19552;DHT22;9921;47.186;9.778;2023-06-26T12:45:54;34.10;91.70
19552;DHT22;9921;47.186;9.778;2023-06-26T12:48:21;34.00;90.10
19552;DHT22;9921;47.186;9.778;2023-06-26T12:50:49;33.90;91.30
19552;DHT22;9921;47.186;9.778;2023-06-26T12:53:18;33.90;90.00
19552;DHT22;9921;47.186;9.778;2023-06-26T12:55:45;34.10;91.60
19552;DHT22;9921;47.186;9.778;2023-06-26T12:58:11;34.10;86.70
19552;DHT22;9921;47.186;9.778;2023-06-26T13:00:38;34.00;87.20
19552;DHT22;9921;47.186;9.778;2023-06-26T13:03:07;34.00;89.40
19552;DHT22;9921;47.186;9.778;2023-06-26T13:05:34;34.10;89.00
19552;DHT22;9921;47.186;9.778;2023-06-26T13:08:02;34.10;89.40
19552;DHT22;9921;47.186;9.778;2023-06-26T13:10:29;34.00;87.60
19552;DHT22;9921;47.186;9.778;2023-06-26T13:12:56;34.10;91.50
19552;DHT22;9921;47.186;9.778;2023-06-26T13:15:22;34.00;90.40
19552;DHT22;9921;47.186;9.778;2023-06-26T13:17:49;33.80;90.50
19552;DHT22;9921;47.186;9.778;2023-06-26T13:20:16;33.80;91.50
19552;DHT22;9921;47.186;9.778;2023-06-26T13:22:43;33.70;91.30
19552;DHT22;9921;47.186;9.778;2023-06-26T13:25:13;33.70;91.30
19552;DHT22;9921;47.186;9.778;2023-06-26T13:27:40;33.70;90.30
19552;DHT22;9921;47.186;9.778;2023-06-26T13:30:08;33.60;91.80
19552;DHT22;9921;47.186;9.778;2023-06-26T13:32:35;33.70;90.50
19552;DHT22;9921;47.186;9.778;2023-06-26T13:35:02;33.50;90.00
19552;DHT22;9921;47.186;9.778;2023-06-26T13:37:32;33.50;91.40
19552;DHT22;9921;47.186;9.778;2023-06-26T13:39:59;33.70;92.30
19552;DHT22;9921;47.186;9.778;2023-06-26T13:42:29;33.80;91.00
19552;DHT22;9921;47.186;9.778;2023-06-26T13:44:55;33.80;91.40
19552;DHT22;9921;47.186;9.778;2023-06-26T13:47:23;33.80;91.90
19552;DHT22;9921;47.186;9.778;2023-06-26T13:49:49;33.80;91.10
19552;DHT22;9921;47.186;9.778;2023-06-26T13:52:16;33.70;91.40
19552;DHT22;9921;47.186;9.778;2023-06-26T13:54:43;33.60;85.70
19552;DHT22;9921;47.186;9.778;2023-06-26T13:57:10;33.50;90.90
19552;DHT22;9921;47.186;9.778;2023-06-26T13:59:39;33.40;89.00
19552;DHT22;9921;47.186;9.778;2023-06-26T14:02:06;33.40;91.80
19552;DHT22;9921;47.186;9.778;2023-06-26T14:04:33;33.40;91.50
19552;DHT22;9921;47.186;9.778;2023-06-26T14:07:00;33.30;90.30
19552;DHT22;9921;47.186;9.778;2023-06-26T14:09:27;33.20;91.40
19552;DHT22;9921;47.186;9.778;2023-06-26T14:11:54;33.20;91.50
19552;DHT22;9921;47.186;9.778;2023-06-26T14:14:21;33.20;92.00
19552;DHT22;9921;47.186;9.778;2023-06-26T14:16:49;33.20;90.60
19552;DHT22;9921;47.186;9.778;2023-06-26T14:19:16;33.10;91.70
19552;DHT22;9921;47.186;9.778;2023-06-26T14:21:44;33.10;90.00
19552;DHT22;9921;47.186;9.778;2023-06-26T14:24:11;33.20;90.70
19552;DHT22;9921;47.186;9.778;2023-06-26T14:26:37;33.20;91.30
19552;DHT22;9921;47.186;9.778;2023-06-26T14:29:04;33.10;90.70
19552;DHT22;9921;47.186;9.778;2023-06-26T14:31:31;33.10;91.70
19552;DHT22;9921;47.186;9.778;2023-06-26T14:33:59;33.00;92.10
19552;DHT22;9921;47.186;9.778;2023-06-26T14:36:38;33.00;88.10
19552;DHT22;9921;47.186;9.778;2023-06-26T14:39:05;32.90;86.00
19552;DHT22;9921;47.186;9.778;2023-06-26T14:41:32;32.80;87.60
19552;DHT22;9921;47.186;9.778;2023-06-26T14:43:58;32.80;90.40
19552;DHT22;9921;47.186;9.778;2023-06-26T14:46:26;32.70;91.40
19552;DHT22;9921;47.186;9.778;2023-06-26T14:48:53;32.70;87.30
19552;DHT22;9921;47.186;9.778;2023-06-26T14:51:22;32.70;90.10
19552;DHT22;9921;47.186;9.778;2023-06-26T14:53:49;32.60;88.00
19552;DHT22;9921;47.186;9.778;2023-06-26T14:56:16;32.50;90.00
19552;DHT22;9921;47.186;9.778;2023-06-26T14:58:43;32.50;91.20
19552;DHT22;9921;47.186;9.778;2023-06-26T15:01:12;32.40;90.00
19552;DHT22;9921;47.186;9.778;2023-06-26T15:03:41;32.20;91.10
19552;DHT22;9921;47.186;9.778;2023-06-26T15:06:08;32.10;88.60
19552;DHT22;9921;47.186;9.778;2023-06-26T15:08:36;32.00;93.00
19552;DHT22;9921;47.186;9.778;2023-06-26T15:11:03;32.00;91.00
19552;DHT22;9921;47.186;9.778;2023-06-26T15:13:29;31.90;91.60
19552;DHT22;9921;47.186;9.778;2023-06-26T15:15:56;31.90;90.60
19552;DHT22;9921;47.186;9.778;2023-06-26T15:18:23;31.80;90.80
19552;DHT22;9921;47.186;9.778;2023-06-26T15:20:50;31.80;88.90
19552;DHT22;9921;47.186;9.778;2023-06-26T15:23:17;31.70;87.20
19552;DHT22;9921;47.186;9.778;2023-06-26T15:25:45;31.70;90.40
19552;DHT22;9921;47.186;9.778;2023-06-26T15:28:12;31.70;90.80
19552;DHT22;9921;47.186;9.778;2023-06-26T15:30:39;31.70;92.20
19552;DHT22;9921;47.186;9.778;2023-06-26T15:33:05;31.60;91.80
19552;DHT22;9921;47.186;9.778;2023-06-26T15:35:32;31.50;91.70
19552;DHT22;9921;47.186;9.778;2023-06-26T15:37:59;31.50;90.80
19552;DHT22;9921;47.186;9.778;2023-06-26T15:40:26;31.40;92.60
19552;DHT22;9921;47.186;9.778;2023-06-26T15:42:54;31.50;92.30
19552;DHT22;9921;47.186;9.778;2023-06-26T15:45:22;31.40;91.30
19552;DHT22;9921;47.186;9.778;2023-06-26T15:47:51;31.30;91.90
19552;DHT22;9921;47.186;9.778;2023-06-26T15:50:19;31.20;92.60